Time,TemperatureF,DewpointF,PressureIn,WindDirection,WindDirectionDegrees,WindSpeedMPH,WindSpeedGustMPH,Humidity,HourlyPrecipIn,Conditions,Clouds,dailyrainin,SoftwareType,DateUTC
2013-01-27 00:01:00,60.8,59.0,30.25,North,360,4.0,7.0,92,0.00,,,0.00,weatherlink.com 1.10,2013-01-27 05:01:00,
2013-01-27 00:16:00,61.2,59.0,30.24,North,360,4.0,6.0,93,0.00,,,0.00,weatherlink.com 1.10,2013-01-27 05:16:00,
2013-01-27 00:31:00,61.2,59.0,30.24,North,5,4.0,7.0,93,0.00,,,0.00,weatherlink.com 1.10,2013-01-27 05:31:00,
2013-01-27 00:46:00,60.3,58.0,30.25,North,5,3.0,4.0,92,0.00,,,0.00,weatherlink.com 1.10,2013-01-27 05:46:00,
2013-01-27 01:01:00,59.3,57.0,30.25,North,5,0.0,3.0,93,0.00,,,0.00,weatherlink.com 1.10,2013-01-27 06:01:00,
2013-01-27 01:17:00,58.4,56.0,30.25,North,5,2.0,3.0,93,0.00,,,0.00,weatherlink.com 1.10,2013-01-27 06:17:00,
2013-01-27 01:32:00,58.2,57.0,30.25,North,5,1.0,2.0,94,0.00,,,0.00,weatherlink.com 1.10,2013-01-27 06:32:00,
2013-01-27 01:47:00,57.6,56.0,30.25,NNW,344,3.0,4.0,94,0.00,,,0.00,weatherlink.com 1.10,2013-01-27 06:47:00,
2013-01-27 02:02:00,56.2,55.0,30.26,SE,126,0.0,4.0,95,0.00,,,0.00,weatherlink.com 1.10,2013-01-27 07:02:00,
2013-01-27 02:17:00,55.5,54.0,30.26,SE,126,1.0,2.0,96,0.00,,,0.00,weatherlink.com 1.10,2013-01-27 07:17:00,
2013-01-27 02:32:00,56.1,55.0,30.26,SE,126,0.0,2.0,97,0.00,,,0.00,weatherlink.com 1.10,2013-01-27 07:32:00,
2013-01-27 02:47:00,56.7,56.0,30.25,SE,126,0.0,2.0,98,0.00,,,0.00,weatherlink.com 1.10,2013-01-27 07:47:00,
2013-01-27 03:02:00,57.4,57.0,30.25,NNE,15,0.0,3.0,98,0.00,,,0.00,weatherlink.com 1.10,2013-01-27 08:02:00,
2013-01-27 03:17:00,57.0,57.0,30.25,NNE,15,0.0,1.0,98,0.00,,,0.00,weatherlink.com 1.10,2013-01-27 08:17:00,
2013-01-27 03:32:00,56.1,55.0,30.25,ESE,111,0.0,3.0,97,0.00,,,0.00,weatherlink.com 1.10,2013-01-27 08:32:00,
2013-01-27 03:47:00,56.7,56.0,30.25,ESE,110,0.0,2.0,98,0.00,,,0.00,weatherlink.com 1.10,2013-01-27 08:47:00,
2013-01-27 04:02:00,56.8,56.0,30.25,ESE,110,0.0,0.0,98,0.00,,,0.00,weatherlink.com 1.10,2013-01-27 09:02:00,
2013-01-27 04:17:00,57.7,57.0,30.25,ENE,74,3.0,3.0,98,0.00,,,0.00,weatherlink.com 1.10,2013-01-27 09:17:00,
2013-01-27 04:32:00,57.5,57.0,30.25,North,355,3.0,5.0,98,0.00,,,0.00,weatherlink.com 1.10,2013-01-27 09:32:00,
2013-01-27 04:47:00,57.5,57.0,30.25,North,360,2.0,5.0,98,0.00,,,0.00,weatherlink.com 1.10,2013-01-27 09:47:00,
2013-01-27 05:02:00,57.2,57.0,30.25,NNW,348,3.0,4.0,98,0.00,,,0.00,weatherlink.com 1.10,2013-01-27 10:02:00,
2013-01-27 05:17:00,57.1,57.0,30.25,North,350,3.0,4.0,98,0.00,,,0.00,weatherlink.com 1.10,2013-01-27 10:17:00,
2013-01-27 05:32:00,56.8,56.0,30.26,North,350,2.0,4.0,98,0.00,,,0.00,weatherlink.com 1.10,2013-01-27 10:32:00,
2013-01-27 05:47:00,56.6,56.0,30.26,North,350,4.0,5.0,98,0.00,,,0.00,weatherlink.com 1.10,2013-01-27 10:47:00,
2013-01-27 06:02:00,56.6,56.0,30.26,North,355,5.0,6.0,98,0.00,,,0.00,weatherlink.com 1.10,2013-01-27 11:02:00,
2013-01-27 06:17:00,56.5,56.0,30.27,North,355,4.0,5.0,98,0.00,,,0.00,weatherlink.com 1.10,2013-01-27 11:17:00,
2013-01-27 06:32:00,56.5,56.0,30.27,North,355,4.0,6.0,98,0.00,,,0.00,weatherlink.com 1.10,2013-01-27 11:32:00,
2013-01-27 06:47:00,57.2,57.0,30.28,ENE,63,4.0,5.0,99,0.00,,,0.00,weatherlink.com 1.10,2013-01-27 11:47:00,
2013-01-27 07:02:00,56.9,56.0,30.29,NNE,18,2.0,4.0,98,0.00,,,0.00,weatherlink.com 1.10,2013-01-27 12:02:00,
2013-01-27 07:17:00,55.9,55.0,30.29,North,355,4.0,5.0,98,0.00,,,0.00,weatherlink.com 1.10,2013-01-27 12:17:00,
2013-01-27 07:32:00,55.9,56.0,30.29,North,355,3.0,5.0,99,0.00,,,0.00,weatherlink.com 1.10,2013-01-27 12:32:00,
2013-01-27 07:47:00,56.1,56.0,30.29,North,355,2.0,4.0,99,0.00,,,0.00,weatherlink.com 1.10,2013-01-27 12:47:00,
2013-01-27 08:02:00,56.8,57.0,30.29,North,10,3.0,5.0,99,0.00,,,0.00,weatherlink.com 1.10,2013-01-27 13:02:00,
2013-01-27 08:17:00,57.6,57.0,30.30,NNE,15,2.0,4.0,99,0.00,,,0.00,weatherlink.com 1.10,2013-01-27 13:17:00,
2013-01-27 08:32:00,58.4,58.0,30.30,NNE,19,4.0,5.0,99,0.00,,,0.00,weatherlink.com 1.10,2013-01-27 13:32:00,
2013-01-27 08:47:00,59.7,60.0,30.30,NE,38,7.0,8.0,99,0.00,,,0.00,weatherlink.com 1.10,2013-01-27 13:47:00,
2013-01-27 09:02:00,60.5,60.0,30.31,ENE,67,4.0,9.0,99,0.00,,,0.00,weatherlink.com 1.10,2013-01-27 14:02:00,
2013-01-27 09:17:00,61.4,61.0,30.31,East,80,7.0,9.0,100,0.01,,,0.01,weatherlink.com 1.10,2013-01-27 14:17:00,
2013-01-27 09:32:00,62.2,62.0,30.31,NE,46,4.0,8.0,99,0.01,,,0.01,weatherlink.com 1.10,2013-01-27 14:32:00,
2013-01-27 09:47:00,63.6,63.0,30.32,ENE,76,5.0,8.0,98,0.01,,,0.01,weatherlink.com 1.10,2013-01-27 14:47:00,
2013-01-27 10:02:00,64.4,62.0,30.32,NE,53,4.0,9.0,93,0.01,,,0.01,weatherlink.com 1.10,2013-01-27 15:02:00,
2013-01-27 10:17:00,65.9,63.0,30.32,ENE,71,9.0,10.0,91,0.00,,,0.01,weatherlink.com 1.10,2013-01-27 15:17:00,
2013-01-27 10:33:00,67.5,63.0,30.32,East,80,8.0,10.0,85,0.00,,,0.01,weatherlink.com 1.10,2013-01-27 15:33:00,
2013-01-27 10:48:00,68.1,62.0,30.32,ENE,67,7.0,10.0,82,0.00,,,0.01,weatherlink.com 1.10,2013-01-27 15:48:00,
2013-01-27 11:03:00,69.1,64.0,30.32,ENE,67,10.0,10.0,83,0.00,,,0.01,weatherlink.com 1.10,2013-01-27 16:03:00,
2013-01-27 11:18:00,69.8,62.0,30.32,NE,46,6.0,10.0,75,0.00,,,0.01,weatherlink.com 1.10,2013-01-27 16:18:00,
2013-01-27 11:33:00,70.6,62.0,30.31,ENE,78,2.0,10.0,73,0.00,,,0.01,weatherlink.com 1.10,2013-01-27 16:33:00,
2013-01-27 11:48:00,71.6,63.0,30.30,NE,39,9.0,12.0,73,0.00,,,0.01,weatherlink.com 1.10,2013-01-27 16:48:00,
2013-01-27 12:03:00,71.7,61.0,30.29,ENE,59,5.0,13.0,70,0.00,,,0.01,weatherlink.com 1.10,2013-01-27 17:03:00,
2013-01-27 12:18:00,72.9,62.0,30.29,NE,36,9.0,13.0,68,0.00,,,0.01,weatherlink.com 1.10,2013-01-27 17:18:00,
2013-01-27 12:33:00,72.5,60.0,30.28,East,85,5.0,13.0,65,0.00,,,0.01,weatherlink.com 1.10,2013-01-27 17:33:00,
2013-01-27 12:48:00,73.2,60.0,30.27,ENE,78,8.0,12.0,63,0.00,,,0.01,weatherlink.com 1.10,2013-01-27 17:48:00,
2013-01-27 13:03:00,74.2,59.0,30.26,East,84,7.0,10.0,59,0.00,,,0.01,weatherlink.com 1.10,2013-01-27 18:03:00,
2013-01-27 13:18:00,75.0,62.0,30.26,East,83,8.0,11.0,64,0.00,,,0.01,weatherlink.com 1.10,2013-01-27 18:18:00,
2013-01-27 13:33:00,74.8,61.0,30.25,NE,51,3.0,10.0,62,0.00,,,0.01,weatherlink.com 1.10,2013-01-27 18:33:00,
2013-01-27 13:48:00,75.9,57.0,30.25,SE,134,3.0,11.0,52,0.00,,,0.01,weatherlink.com 1.10,2013-01-27 18:48:00,
2013-01-27 14:03:00,76.1,61.0,30.25,ENE,73,11.0,12.0,59,0.00,,,0.01,weatherlink.com 1.10,2013-01-27 19:03:00,
2013-01-27 14:18:00,76.7,57.0,30.24,SE,138,8.0,12.0,51,0.00,,,0.01,weatherlink.com 1.10,2013-01-27 19:18:00,
2013-01-27 14:33:00,76.7,57.0,30.23,East,88,8.0,12.0,50,0.00,,,0.01,weatherlink.com 1.10,2013-01-27 19:33:00,
2013-01-27 14:48:00,76.5,56.0,30.23,SE,127,4.0,13.0,50,0.00,,,0.01,weatherlink.com 1.10,2013-01-27 19:48:00,
2013-01-27 15:03:00,76.9,57.0,30.23,ESE,114,4.0,11.0,51,0.00,,,0.01,weatherlink.com 1.10,2013-01-27 20:03:00,
2013-01-27 15:18:00,76.5,61.0,30.23,East,101,9.0,13.0,59,0.00,,,0.01,weatherlink.com 1.10,2013-01-27 20:18:00,
2013-01-27 15:33:00,76.9,57.0,30.23,ESE,105,8.0,13.0,51,0.00,,,0.01,weatherlink.com 1.10,2013-01-27 20:33:00,
2013-01-27 15:48:00,76.8,60.0,30.22,ESE,115,9.0,13.0,56,0.00,,,0.01,weatherlink.com 1.10,2013-01-27 20:48:00,
2013-01-27 16:03:00,76.7,60.0,30.23,ESE,107,8.0,12.0,57,0.00,,,0.01,weatherlink.com 1.10,2013-01-27 21:03:00,
2013-01-27 16:18:00,77.2,61.0,30.23,ESE,107,5.0,11.0,57,0.00,,,0.01,weatherlink.com 1.10,2013-01-27 21:18:00,
2013-01-27 16:33:00,76.7,60.0,30.23,ESE,116,5.0,11.0,56,0.00,,,0.01,weatherlink.com 1.10,2013-01-27 21:33:00,
2013-01-27 16:48:00,76.4,57.0,30.23,ESE,110,4.0,10.0,52,0.00,,,0.01,weatherlink.com 1.10,2013-01-27 21:48:00,
2013-01-27 17:03:00,75.9,58.0,30.23,ESE,113,8.0,13.0,54,0.00,,,0.01,weatherlink.com 1.10,2013-01-27 22:03:00,
2013-01-27 17:18:00,75.2,59.0,30.24,ESE,104,5.0,10.0,58,0.00,,,0.01,weatherlink.com 1.10,2013-01-27 22:18:00,
2013-01-27 17:33:00,74.4,58.0,30.25,ESE,121,5.0,13.0,56,0.00,,,0.01,weatherlink.com 1.10,2013-01-27 22:33:00,
2013-01-27 17:48:00,73.3,57.0,30.25,SE,126,6.0,9.0,57,0.00,,,0.01,weatherlink.com 1.10,2013-01-27 22:48:00,
2013-01-27 18:03:00,72.5,56.0,30.26,ESE,115,3.0,8.0,57,0.00,,,0.01,weatherlink.com 1.10,2013-01-27 23:03:00,
2013-01-27 18:18:00,71.6,56.0,30.26,SE,125,3.0,6.0,59,0.00,,,0.01,weatherlink.com 1.10,2013-01-27 23:18:00,
2013-01-27 18:33:00,70.8,57.0,30.27,SE,128,3.0,4.0,62,0.00,,,0.01,weatherlink.com 1.10,2013-01-27 23:33:00,
2013-01-27 18:48:00,70.2,56.0,30.27,ESE,121,4.0,5.0,62,0.00,,,0.01,weatherlink.com 1.10,2013-01-27 23:48:00,
2013-01-27 19:03:00,70.1,59.0,30.27,ESE,109,5.0,9.0,68,0.00,,,0.01,weatherlink.com 1.10,2013-01-28 00:03:00,
2013-01-27 19:18:00,69.6,59.0,30.28,ESE,111,7.0,9.0,68,0.00,,,0.01,weatherlink.com 1.10,2013-01-28 00:18:00,
2013-01-27 19:33:00,69.3,59.0,30.28,ESE,111,8.0,10.0,70,0.00,,,0.01,weatherlink.com 1.10,2013-01-28 00:33:00,
2013-01-27 19:48:00,69.4,60.0,30.29,East,100,6.0,8.0,73,0.00,,,0.01,weatherlink.com 1.10,2013-01-28 00:48:00,
2013-01-27 20:03:00,68.6,60.0,30.29,ESE,103,4.0,7.0,75,0.00,,,0.01,weatherlink.com 1.10,2013-01-28 01:03:00,
2013-01-27 20:18:00,67.8,59.0,30.30,ESE,108,4.0,7.0,74,0.00,,,0.01,weatherlink.com 1.10,2013-01-28 01:18:00,
2013-01-27 20:33:00,67.4,60.0,30.30,East,89,6.0,6.0,76,0.00,,,0.01,weatherlink.com 1.10,2013-01-28 01:33:00,
2013-01-27 20:48:00,66.9,59.0,30.30,ESE,103,2.0,7.0,77,0.00,,,0.01,weatherlink.com 1.10,2013-01-28 01:48:00,
2013-01-27 21:03:00,67.1,60.0,30.30,ENE,72,4.0,8.0,78,0.00,,,0.01,weatherlink.com 1.10,2013-01-28 02:03:00,
2013-01-27 21:18:00,66.7,61.0,30.30,ENE,67,4.0,6.0,82,0.00,,,0.01,weatherlink.com 1.10,2013-01-28 02:18:00,
2013-01-27 21:33:00,66.3,60.0,30.30,ENE,71,2.0,4.0,80,0.00,,,0.01,weatherlink.com 1.10,2013-01-28 02:33:00,
2013-01-27 21:48:00,66.1,60.0,30.30,ENE,57,1.0,5.0,81,0.00,,,0.01,weatherlink.com 1.10,2013-01-28 02:48:00,
2013-01-27 22:03:00,64.8,59.0,30.30,SE,130,3.0,4.0,80,0.00,,,0.01,weatherlink.com 1.10,2013-01-28 03:03:00,
2013-01-27 22:18:00,64.4,59.0,30.30,ESE,112,0.0,4.0,82,0.00,,,0.01,weatherlink.com 1.10,2013-01-28 03:18:00,
2013-01-27 22:33:00,65.0,60.0,30.30,ENE,63,1.0,5.0,85,0.00,,,0.01,weatherlink.com 1.10,2013-01-28 03:33:00,
2013-01-27 22:48:00,64.8,61.0,30.30,ENE,73,0.0,5.0,86,0.00,,,0.01,weatherlink.com 1.10,2013-01-28 03:48:00,
2013-01-27 23:03:00,64.4,61.0,30.30,East,80,1.0,5.0,89,0.00,,,0.01,weatherlink.com 1.10,2013-01-28 04:03:00,
2013-01-27 23:18:00,64.2,61.0,30.30,ENE,73,0.0,4.0,89,0.00,,,0.01,weatherlink.com 1.10,2013-01-28 04:18:00,
2013-01-27 23:33:00,64.0,61.0,30.30,NE,53,0.0,4.0,90,0.00,,,0.01,weatherlink.com 1.10,2013-01-28 04:33:00,
2013-01-27 23:48:00,63.7,61.0,30.29,ENE,59,1.0,7.0,92,0.00,,,0.01,weatherlink.com 1.10,2013-01-28 04:48:00,